Time;durP1;ratioP1;P1;durP2;ratioP2;P2;SDS_P1;SDS_P2;PMS_P1;PMS_P2;Temp;Humidity;BMP_temperature;BMP_pressure;BME280_temperature;BME280_humidity;BME280_pressure;Samples;Min_cycle;Max_cycle;Signal;HPM_P1;HPM_P2
2022/05/06 00:00:55;;;;;;;;;;;;;;;18.36;63.79;98659.94;2097606;28;19935;-52
2022/05/06 00:01:57;;;;;;;;;;;;;;;18.34;63.74;98668.22;2099353;28;19963;-51
2022/05/06 00:02:57;;;;;;;;;;;;;;;18.35;63.58;98664.47;2096541;28;19939;-53
2022/05/06 00:04:00;;;;;;;;;;;;;;;18.35;63.90;98671.72;2097107;28;19959;-49
2022/05/06 00:05:01;;;;;;;;;;;;;;;18.34;63.64;98668.22;2097902;28;19943;-46
2022/05/06 00:06:03;;;;;;;;;;;;;;;18.36;63.66;98682.28;2099178;28;19975;-48
2022/05/06 00:07:03;;;;;;;;;;;;;;;18.34;63.52;98673.56;2100541;28;20431;-49
2022/05/06 00:08:05;;;;;;;;;;;;;;;18.33;63.89;98677.31;2097010;28;19924;-52
2022/05/06 00:09:06;;;;;;;;;;;;;;;18.34;63.78;98684.31;2100278;28;19928;-47
2022/05/06 00:10:09;;;;;;;;;;;;;;;18.35;63.96;98680.59;2097904;28;19991;-51
2022/05/06 00:11:10;;;;;;;;;;;;;;;18.34;63.69;98683.50;2100315;28;21103;-52
2022/05/06 00:12:12;;;;;;;;;;;;;;;18.34;63.58;98676.25;2097588;28;19966;-51
2022/05/06 00:13:13;;;;;;;;;;;;;;;18.34;63.77;98673.56;2100294;28;19961;-49
2022/05/06 00:14:14;;;;;;;;;;;;;;;18.33;63.71;98671.94;2099395;28;19962;-48
2022/05/06 00:15:15;;;;;;;;;;;;;;;18.33;63.81;98669.25;2097591;28;20793;-48
2022/05/06 00:16:18;;;;;;;;;;;;;;;18.34;63.54;98667.38;2099320;28;19924;-46
2022/05/06 00:17:19;;;;;;;;;;;;;;;18.33;63.85;98671.94;2094068;28;19928;-53
2022/05/06 00:18:20;;;;;;;;;;;;;;;18.33;63.67;98669.25;2095541;28;20715;-51
2022/05/06 00:19:22;;;;;;;;;;;;;;;18.34;63.49;98670.06;2097346;28;20940;-51
2022/05/06 00:20:24;;;;;;;;;;;;;;;18.33;63.93;98666.56;2098160;28;19950;-51
2022/05/06 00:21:24;;;;;;;;;;;;;;;18.34;63.71;98668.22;2096285;28;19935;-47
2022/05/06 00:22:26;;;;;;;;;;;;;;;18.34;63.59;98667.38;2098823;28;20556;-51
2022/05/06 00:23:26;;;;;;;;;;;;;;;18.32;63.74;98664.88;2099711;28;20031;-49
2022/05/06 00:24:28;;;;;;;;;;;;;;;18.32;63.59;98659.50;2093768;28;19946;-51
2022/05/06 00:25:29;;;;;;;;;;;;;;;18.34;63.63;98668.22;2098707;28;19978;-52
2022/05/06 00:26:31;;;;;;;;;;;;;;;18.32;63.81;98654.16;2095367;28;21009;-47
2022/05/06 00:27:31;;;;;;;;;;;;;;;18.32;63.73;98654.16;2098140;28;19934;-52
2022/05/06 00:28:33;;;;;;;;;;;;;;;18.32;64.00;98654.16;2098980;28;20451;-51
2022/05/06 00:29:34;;;;;;;;;;;;;;;18.33;63.89;98655.81;2096812;28;19981;-48
2022/05/06 00:30:35;;;;;;;;;;;;;;;18.31;63.60;98645.28;2098612;28;20043;-51
2022/05/06 00:31:36;;;;;;;;;;;;;;;18.32;63.80;98646.09;2094596;28;19932;-50
2022/05/06 00:32:37;;;;;;;;;;;;;;;18.33;63.61;98646.91;2099246;28;20086;-48
2022/05/06 00:33:38;;;;;;;;;;;;;;;18.32;63.76;98643.41;2093702;28;19940;-49
2022/05/06 00:34:41;;;;;;;;;;;;;;;18.33;63.77;98638.84;2096904;28;19967;-46
2022/05/06 00:35:42;;;;;;;;;;;;;;;18.33;63.76;98633.50;2097915;28;19931;-47
2022/05/06 00:36:44;;;;;;;;;;;;;;;18.33;63.80;98633.50;2097034;28;20462;-46
2022/05/06 00:37:44;;;;;;;;;;;;;;;18.33;63.71;98633.50;2100312;28;19931;-50
2022/05/06 00:38:46;;;;;;;;;;;;;;;18.31;63.76;98631.03;2097009;28;20019;-53
2022/05/06 00:39:48;;;;;;;;;;;;;;;18.32;63.82;98632.66;2098777;28;19932;-48
2022/05/06 00:40:48;;;;;;;;;;;;;;;18.32;63.54;98624.63;2093970;28;20553;-51
2022/05/06 00:41:53;;;;;;;;;;;;;;;18.31;63.89;98623.78;2099688;28;19924;-48
2022/05/06 00:42:54;;;;;;;;;;;;;;;18.30;63.59;98622.16;2097534;28;19928;-48
2022/05/06 00:43:56;;;;;;;;;;;;;;;18.32;63.77;98624.63;2101857;28;19924;-51
2022/05/06 00:44:56;;;;;;;;;;;;;;;18.30;63.79;98621.28;2101890;28;19928;-52
2022/05/06 00:45:58;;;;;;;;;;;;;;;18.31;63.61;98620.28;2096545;28;19960;-49
2022/05/06 00:47:00;;;;;;;;;;;;;;;18.31;63.58;98617.59;2097127;28;19935;-51
2022/05/06 00:48:00;;;;;;;;;;;;;;;18.31;63.76;98621.09;2098019;28;19963;-50
2022/05/06 00:49:02;;;;;;;;;;;;;;;18.30;63.79;98618.59;2099472;28;20680;-48
2022/05/06 00:50:05;;;;;;;;;;;;;;;18.29;63.54;98619.66;2099481;28;19935;-51
2022/05/06 00:51:08;;;;;;;;;;;;;;;18.32;63.42;98619.25;2099138;28;20194;-48
2022/05/06 00:52:10;;;;;;;;;;;;;;;18.31;63.91;98612.22;2099967;28;19954;-52
2022/05/06 00:53:11;;;;;;;;;;;;;;;18.30;63.51;98607.88;2100878;28;20022;-50
2022/05/06 00:54:13;;;;;;;;;;;;;;;18.30;63.59;98610.56;2100759;28;19932;-49
2022/05/06 00:55:13;;;;;;;;;;;;;;;18.30;63.73;98602.50;2099310;28;19928;-49
2022/05/06 00:56:16;;;;;;;;;;;;;;;18.31;63.46;98609.53;2100802;28;20171;-50
2022/05/06 00:57:17;;;;;;;;;;;;;;;18.30;63.44;98603.34;2098961;28;19924;-47
2022/05/06 00:58:18;;;;;;;;;;;;;;;18.29;63.72;98603.53;2099875;28;19928;-50
2022/05/06 00:59:20;;;;;;;;;;;;;;;18.29;63.83;98606.22;2096985;28;20867;-50
2022/05/06 01:00:20;;;;;;;;;;;;;;;18.28;63.60;98601.91;2095768;28;20095;-47
2022/05/06 01:01:22;;;;;;;;;;;;;;;18.27;63.52;98592.16;2097502;28;19928;-49
2022/05/06 01:02:23;;;;;;;;;;;;;;;18.28;63.84;98604.59;2099661;28;19931;-48
2022/05/06 01:03:24;;;;;;;;;;;;;;;18.28;63.53;98604.59;2099234;28;19928;-50
2022/05/06 01:04:25;;;;;;;;;;;;;;;18.29;63.78;98607.03;2101037;28;20766;-49
2022/05/06 01:05:28;;;;;;;;;;;;;;;18.29;63.71;98611.59;2098991;28;19924;-49
2022/05/06 01:06:29;;;;;;;;;;;;;;;18.30;63.48;98607.88;2100851;28;19924;-50
2022/05/06 01:07:30;;;;;;;;;;;;;;;18.28;63.51;98605.41;2095862;28;19931;-51
2022/05/06 01:08:32;;;;;;;;;;;;;;;18.30;63.47;98592.63;2099162;28;19935;-49
2022/05/06 01:09:34;;;;;;;;;;;;;;;18.29;63.67;98590.13;2099719;28;20023;-49
2022/05/06 01:10:36;;;;;;;;;;;;;;;18.29;63.74;98592.81;2098078;28;19928;-53
2022/05/06 01:11:38;;;;;;;;;;;;;;;18.28;63.80;98583.94;2097417;28;20424;-49
2022/05/06 01:12:38;;;;;;;;;;;;;;;18.28;63.73;98585.78;2099154;28;19924;-48
2022/05/06 01:13:40;;;;;;;;;;;;;;;18.27;63.49;98576.88;2100606;28;19924;-49
2022/05/06 01:14:41;;;;;;;;;;;;;;;18.27;63.71;98582.25;2096411;28;19968;-54
2022/05/06 01:15:42;;;;;;;;;;;;;;;18.28;63.76;98583.94;2095908;28;20447;-47
2022/05/06 01:16:44;;;;;;;;;;;;;;;18.28;63.56;98585.78;2095473;28;19950;-49
2022/05/06 01:17:44;;;;;;;;;;;;;;;18.27;63.48;98586.78;2100958;28;20474;-52
2022/05/06 01:18:47;;;;;;;;;;;;;;;18.26;63.74;98585.16;2094858;28;20023;-49
2022/05/06 01:19:48;;;;;;;;;;;;;;;18.25;63.54;98581.66;2096544;28;19928;-52
2022/05/06 01:20:52;;;;;;;;;;;;;;;18.27;63.77;98586.78;2096281;28;20039;-47
2022/05/06 01:21:55;;;;;;;;;;;;;;;18.27;63.74;98578.75;2098088;28;20019;-52
2022/05/06 01:22:58;;;;;;;;;;;;;;;18.26;63.82;98577.91;2100903;28;19963;-49
2022/05/06 01:23:58;;;;;;;;;;;;;;;18.26;63.76;98577.09;2099021;28;19974;-48
2022/05/06 01:25:01;;;;;;;;;;;;;;;18.25;63.73;98578.97;2100548;28;19932;-49
2022/05/06 01:26:01;;;;;;;;;;;;;;;18.26;63.80;98585.16;2100253;28;19931;-50
2022/05/06 01:27:04;;;;;;;;;;;;;;;18.25;63.63;98587.00;2091990;28;19983;-47
2022/05/06 01:28:05;;;;;;;;;;;;;;;18.25;63.58;98588.88;2097368;28;20488;-53
2022/05/06 01:29:07;;;;;;;;;;;;;;;18.25;63.71;98578.13;2093639;28;19924;-49
2022/05/06 01:30:10;;;;;;;;;;;;;;;18.24;63.75;98581.84;2097547;28;19957;-51
2022/05/06 01:31:17;;;;;;;;;;;;;;;18.25;63.50;98588.88;2098332;28;20474;-48
2022/05/06 01:32:18;;;;;;;;;;;;;;;18.25;63.47;98597.75;2101102;28;19928;-53
2022/05/06 01:33:21;;;;;;;;;;;;;;;18.26;63.48;98601.25;2099290;27;19935;-51
2022/05/06 01:34:23;;;;;;;;;;;;;;;18.26;63.75;98598.56;2100138;28;19975;-53
2022/05/06 01:35:26;;;;;;;;;;;;;;;18.27;63.60;98603.72;2096453;28;19935;-48
2022/05/06 01:36:27;;;;;;;;;;;;;;;18.25;63.46;98587.00;2097726;28;20301;-51
2022/05/06 01:37:31;;;;;;;;;;;;;;;18.23;63.51;98585.56;2095655;28;20401;-50
2022/05/06 01:38:34;;;;;;;;;;;;;;;18.24;63.49;98592.56;2100986;28;20633;-46
2022/05/06 01:39:36;;;;;;;;;;;;;;;18.25;63.50;98588.88;2100392;28;19924;-50
2022/05/06 01:40:39;;;;;;;;;;;;;;;18.24;63.71;98587.22;2097797;28;19925;-47
2022/05/06 01:41:41;;;;;;;;;;;;;;;18.25;63.54;98587.00;2099723;28;19975;-50
2022/05/06 01:42:41;;;;;;;;;;;;;;;18.24;63.57;98585.34;2099614;28;19930;-45
2022/05/06 01:43:48;;;;;;;;;;;;;;;18.25;63.71;98583.50;2098026;28;19932;-51
2022/05/06 01:44:50;;;;;;;;;;;;;;;18.23;63.66;98577.50;2096131;28;19966;-52
2022/05/06 01:45:53;;;;;;;;;;;;;;;18.24;63.72;98581.84;2094289;28;19928;-49
2022/05/06 01:46:57;;;;;;;;;;;;;;;18.24;63.44;98579.97;2101012;28;19963;-47
2022/05/06 01:48:01;;;;;;;;;;;;;;;18.24;63.66;98573.78;2097953;28;20288;-51
2022/05/06 01:49:04;;;;;;;;;;;;;;;18.24;63.55;98576.47;2098223;28;19924;-50
2022/05/06 01:50:05;;;;;;;;;;;;;;;18.24;63.48;98571.91;2097535;28;20038;-49
2022/05/06 01:51:08;;;;;;;;;;;;;;;18.24;63.69;98565.72;2101582;28;19931;-47
2022/05/06 01:52:14;;;;;;;;;;;;;;;18.25;63.79;98556.66;2097300;28;20015;-51
2022/05/06 01:53:18;;;;;;;;;;;;;;;18.23;63.83;98559.53;2099150;28;19955;-53
2022/05/06 01:54:18;;;;;;;;;;;;;;;18.25;63.43;98556.66;2099747;28;20335;-48
2022/05/06 01:55:20;;;;;;;;;;;;;;;18.23;63.72;98553.34;2099196;28;19924;-49
2022/05/06 01:56:21;;;;;;;;;;;;;;;18.24;63.64;98560.34;2099248;28;19932;-48
2022/05/06 01:57:22;;;;;;;;;;;;;;;18.25;63.37;98556.66;2095155;28;20018;-52
2022/05/06 01:58:23;;;;;;;;;;;;;;;18.24;63.67;98560.34;2097536;28;20378;-50
2022/05/06 01:59:24;;;;;;;;;;;;;;;18.23;63.77;98561.41;2099307;28;19930;-51
2022/05/06 02:00:25;;;;;;;;;;;;;;;18.23;63.78;98564.09;2098837;28;19932;-49
2022/05/06 02:01:26;;;;;;;;;;;;;;;18.22;63.70;98563.25;2099344;28;20316;-52
2022/05/06 02:02:27;;;;;;;;;;;;;;;18.21;63.70;98561.59;2095809;28;20398;-52
2022/05/06 02:06:06;;;;;;;;;;;;;;;18.21;63.79;98561.59;2097492;28;20400;-51
2022/05/06 02:07:07;;;;;;;;;;;;;;;18.22;63.78;98557.03;2099661;28;19924;-51
2022/05/06 02:08:09;;;;;;;;;;;;;;;18.23;63.76;98548.78;2098702;28;19928;-49
2022/05/06 02:09:11;;;;;;;;;;;;;;;18.24;63.68;98555.00;2099800;28;19924;-52
2022/05/06 02:10:12;;;;;;;;;;;;;;;18.24;63.71;98549.63;2094012;28;20004;-51
2022/05/06 02:11:13;;;;;;;;;;;;;;;18.24;63.57;98555.81;2094972;28;19932;-51
2022/05/06 02:12:14;;;;;;;;;;;;;;;18.23;63.59;98542.59;2097953;28;20170;-47
2022/05/06 02:13:15;;;;;;;;;;;;;;;18.23;63.72;98542.59;2100432;28;19935;-49
2022/05/06 02:14:17;;;;;;;;;;;;;;;18.24;63.60;98544.25;2099530;28;19932;-47
2022/05/06 02:15:18;;;;;;;;;;;;;;;18.21;63.69;98540.13;2099471;28;20385;-48
2022/05/06 02:16:20;;;;;;;;;;;;;;;18.20;63.70;98545.69;2097972;28;19970;-54
2022/05/06 02:17:21;;;;;;;;;;;;;;;18.20;63.70;98545.69;2098707;28;19992;-51
2022/05/06 02:18:22;;;;;;;;;;;;;;;18.19;63.77;98541.34;2097365;28;20478;-46
2022/05/06 02:19:23;;;;;;;;;;;;;;;18.19;63.59;98541.34;2096699;28;19932;-49
2022/05/06 02:20:24;;;;;;;;;;;;;;;18.20;63.54;98543.00;2100058;28;19981;-51
2022/05/06 02:21:25;;;;;;;;;;;;;;;18.20;63.71;98535.78;2097840;28;20023;-53
2022/05/06 02:22:29;;;;;;;;;;;;;;;18.21;63.53;98536.59;2100381;28;19950;-49
2022/05/06 02:23:31;;;;;;;;;;;;;;;18.21;63.48;98524.00;2100433;28;20445;-48
2022/05/06 02:24:33;;;;;;;;;;;;;;;18.21;63.61;98523.19;2094675;28;20601;-49
2022/05/06 02:25:35;;;;;;;;;;;;;;;18.21;63.69;98523.19;2099236;28;19928;-50
2022/05/06 02:26:36;;;;;;;;;;;;;;;18.22;63.63;98524.81;2098173;28;19959;-48
2022/05/06 02:27:37;;;;;;;;;;;;;;;18.22;63.61;98516.78;2100158;28;19924;-49
2022/05/06 02:28:38;;;;;;;;;;;;;;;18.22;63.66;98523.00;2100064;28;19924;-51
2022/05/06 02:33:12;;;;;;;;;;;;;;;18.22;63.75;98520.31;2100990;28;19943;-49
2022/05/06 02:33:38;;;;;;;;;;;;;;;18.20;63.76;98510.81;2101107;28;19924;-52
2022/05/06 02:34:39;;;;;;;;;;;;;;;18.18;63.60;98513.69;2098341;28;19928;-48
2022/05/06 02:35:40;;;;;;;;;;;;;;;18.17;63.67;98513.91;2101756;28;19925;-51
2022/05/06 02:36:42;;;;;;;;;;;;;;;18.17;63.65;98521.94;2101838;28;19924;-47
2022/05/06 02:37:43;;;;;;;;;;;;;;;18.18;63.69;98518.22;2099535;28;20019;-51
2022/05/06 02:38:45;;;;;;;;;;;;;;;18.18;63.69;98513.69;2101608;28;20427;-47
2022/05/06 02:39:47;;;;;;;;;;;;;;;18.15;63.67;98503.34;2099164;28;20923;-49
2022/05/06 02:40:49;;;;;;;;;;;;;;;18.18;63.70;98508.31;2100914;28;20527;-52
2022/05/06 02:41:50;;;;;;;;;;;;;;;18.17;63.78;98500.47;2094106;28;19928;-49
2022/05/06 02:42:51;;;;;;;;;;;;;;;18.17;63.55;98495.09;2099997;28;19929;-47
2022/05/06 02:43:53;;;;;;;;;;;;;;;18.17;63.71;98495.94;2097776;28;19928;-48
2022/05/06 02:44:53;;;;;;;;;;;;;;;18.17;63.54;98493.25;2094433;28;19923;-48
2022/05/06 02:45:55;;;;;;;;;;;;;;;18.18;63.76;98494.88;2097339;28;19924;-47
2022/05/06 02:46:55;;;;;;;;;;;;;;;18.17;63.68;98497.78;2098213;28;20361;-51
2022/05/06 02:47:57;;;;;;;;;;;;;;;18.18;63.61;98494.06;2100678;28;20150;-48
2022/05/06 02:48:58;;;;;;;;;;;;;;;18.18;63.50;98492.19;2098666;28;19932;-46
2022/05/06 02:49:59;;;;;;;;;;;;;;;18.20;63.59;98494.69;2098506;28;19928;-48
2022/05/06 02:51:00;;;;;;;;;;;;;;;18.18;63.61;98500.25;2100820;28;20011;-47
2022/05/06 02:52:01;;;;;;;;;;;;;;;18.17;63.83;98501.31;2095810;28;20442;-50
2022/05/06 02:53:02;;;;;;;;;;;;;;;18.16;63.75;98498.81;2098898;28;19932;-47
2022/05/06 02:54:05;;;;;;;;;;;;;;;18.16;63.78;98502.31;2101269;28;19931;-48
2022/05/06 02:55:07;;;;;;;;;;;;;;;18.17;63.58;98495.09;2100395;28;20018;-48
2022/05/06 02:56:09;;;;;;;;;;;;;;;18.16;63.76;98493.44;2095872;28;19939;-51
2022/05/06 02:57:10;;;;;;;;;;;;;;;18.16;63.48;98501.50;2099782;28;19924;-48
2022/05/06 02:58:12;;;;;;;;;;;;;;;18.15;63.43;98492.63;2098718;28;19982;-47
2022/05/06 02:59:12;;;;;;;;;;;;;;;18.15;63.57;98494.47;2089746;28;19939;-48
2022/05/06 03:00:14;;;;;;;;;;;;;;;18.16;63.53;98488.88;2096923;28;20009;-48
2022/05/06 03:01:15;;;;;;;;;;;;;;;18.17;63.73;98485.19;2096285;28;19933;-49
2022/05/06 03:02:17;;;;;;;;;;;;;;;18.14;63.74;98496.34;2099566;28;20687;-49
2022/05/06 03:03:17;;;;;;;;;;;;;;;18.15;63.62;98478.38;2098533;28;20572;-48
2022/05/06 03:04:19;;;;;;;;;;;;;;;18.14;63.85;98474.03;2096534;28;19928;-49
2022/05/06 03:05:19;;;;;;;;;;;;;;;18.14;63.55;98471.38;2099118;28;19931;-49
2022/05/06 03:06:21;;;;;;;;;;;;;;;18.14;63.77;98457.94;2098453;28;20460;-47
2022/05/06 03:07:22;;;;;;;;;;;;;;;18.13;63.62;98450.91;2096662;28;19925;-50
2022/05/06 03:08:23;;;;;;;;;;;;;;;18.14;63.66;98460.63;2101140;28;19924;-48
2022/05/06 03:09:24;;;;;;;;;;;;;;;18.16;63.27;98461.22;2099125;28;19932;-50
2022/05/06 03:10:27;;;;;;;;;;;;;;;18.14;63.57;98457.94;2098205;28;19936;-49
2022/05/06 03:11:27;;;;;;;;;;;;;;;18.15;63.58;98465.78;2098703;28;20020;-47
2022/05/06 03:12:29;;;;;;;;;;;;;;;18.15;63.73;98454.22;2096778;28;19963;-48
2022/05/06 03:13:29;;;;;;;;;;;;;;;18.15;63.48;98467.63;2094743;28;20012;-49
2022/05/06 03:14:31;;;;;;;;;;;;;;;18.15;63.72;98455.03;2098655;28;19997;-50
2022/05/06 03:15:32;;;;;;;;;;;;;;;18.14;63.42;98453.41;2098922;28;19935;-47
2022/05/06 03:16:33;;;;;;;;;;;;;;;18.16;63.63;98453.16;2098077;28;20996;-49
2022/05/06 03:17:34;;;;;;;;;;;;;;;18.14;63.65;98453.41;2098760;28;20632;-47
2022/05/06 03:18:35;;;;;;;;;;;;;;;18.12;63.65;98454.63;2100398;28;19924;-50
2022/05/06 03:19:36;;;;;;;;;;;;;;;18.16;63.71;98455.84;2093828;28;19932;-47
2022/05/06 03:20:38;;;;;;;;;;;;;;;18.16;63.72;98455.84;2098261;28;20062;-48
2022/05/06 03:21:39;;;;;;;;;;;;;;;18.17;63.54;98454.84;2098237;28;19957;-49
2022/05/06 03:22:41;;;;;;;;;;;;;;;18.15;63.48;98457.72;2098342;28;19988;-48
2022/05/06 03:23:45;;;;;;;;;;;;;;;18.12;63.62;98452.75;2097914;28;20391;-47
2022/05/06 03:24:45;;;;;;;;;;;;;;;18.12;63.54;98457.31;2098003;28;19932;-49
2022/05/06 03:25:48;;;;;;;;;;;;;;;18.12;63.94;98457.31;2095540;28;19928;-47
2022/05/06 03:26:49;;;;;;;;;;;;;;;18.12;63.65;98451.94;2100830;28;19932;-51
2022/05/06 03:28:07;;;;;;;;;;;;;;;18.14;63.68;98460.63;2095860;28;20027;-52
2022/05/06 03:29:08;;;;;;;;;;;;;;;18.12;63.73;98454.63;2098277;28;19950;-51
2022/05/06 03:30:09;;;;;;;;;;;;;;;18.11;63.61;98458.31;2096782;28;19932;-50
2022/05/06 03:31:13;;;;;;;;;;;;;;;18.12;63.50;98451.94;2099924;28;19928;-46
2022/05/06 03:32:14;;;;;;;;;;;;;;;18.12;63.60;98446.56;2096856;28;19928;-49
2022/05/06 03:33:17;;;;;;;;;;;;;;;18.11;63.65;98443.06;2098982;28;20274;-47
2022/05/06 03:34:17;;;;;;;;;;;;;;;18.12;63.61;98439.34;2096217;28;20301;-47
2022/05/06 03:35:19;;;;;;;;;;;;;;;18.12;63.70;98438.53;2095760;28;19999;-46
2022/05/06 03:36:21;;;;;;;;;;;;;;;18.12;63.54;98436.66;2096778;28;19936;-48
2022/05/06 03:37:21;;;;;;;;;;;;;;;18.12;63.62;98433.16;2099109;28;19931;-49
2022/05/06 03:38:23;;;;;;;;;;;;;;;18.12;63.66;98428.59;2098715;28;19934;-48
2022/05/06 03:39:23;;;;;;;;;;;;;;;18.12;63.69;98433.97;2099164;28;20487;-51
2022/05/06 03:40:25;;;;;;;;;;;;;;;18.11;63.70;98437.69;2093007;28;20054;-47
2022/05/06 03:41:27;;;;;;;;;;;;;;;18.12;63.68;98435.84;2096393;28;19955;-50
2022/05/06 03:42:29;;;;;;;;;;;;;;;18.12;63.48;98430.47;2096094;28;19924;-49
2022/05/06 03:43:29;;;;;;;;;;;;;;;18.14;63.68;98428.41;2096548;28;19976;-48
2022/05/06 03:44:31;;;;;;;;;;;;;;;18.11;63.79;98442.22;2099994;28;20061;-51
2022/05/06 03:45:31;;;;;;;;;;;;;;;18.11;63.60;98431.47;2099889;28;20301;-48
2022/05/06 03:46:33;;;;;;;;;;;;;;;18.08;63.60;98438.94;2101009;28;19928;-49
2022/05/06 03:47:34;;;;;;;;;;;;;;;18.10;63.48;98430.66;2099502;28;19924;-46
2022/05/06 03:48:36;;;;;;;;;;;;;;;18.07;63.74;98429.22;2096446;28;20027;-50
2022/05/06 03:49:37;;;;;;;;;;;;;;;18.08;63.86;98435.44;2101577;28;19954;-51
2022/05/06 03:51:58;;;;;;;;;;;;;;;18.07;63.52;98429.22;2099407;28;20437;-49
2022/05/06 03:52:59;;;;;;;;;;;;;;;18.08;63.85;98435.44;2097628;28;20018;-52
2022/05/06 03:54:01;;;;;;;;;;;;;;;18.08;63.85;98435.44;2099301;28;20405;-49
2022/05/06 03:55:02;;;;;;;;;;;;;;;18.07;63.67;98431.06;2099421;28;19967;-49
2022/05/06 03:56:04;;;;;;;;;;;;;;;18.08;63.78;98440.81;2095613;28;20355;-50
2022/05/06 03:57:06;;;;;;;;;;;;;;;18.06;63.73;98441.00;2095202;28;20302;-52
2022/05/06 03:58:08;;;;;;;;;;;;;;;18.07;63.63;98439.94;2095790;28;19928;-49
2022/05/06 03:59:09;;;;;;;;;;;;;;;18.10;63.67;98446.75;2099846;28;19998;-50
2022/05/06 04:00:11;;;;;;;;;;;;;;;18.09;63.65;98443.25;2096824;28;19968;-51
2022/05/06 04:01:12;;;;;;;;;;;;;;;18.08;63.50;98438.94;2098891;28;19928;-49
2022/05/06 04:02:13;;;;;;;;;;;;;;;18.07;63.73;98431.06;2099267;28;19939;-46
2022/05/06 04:03:14;;;;;;;;;;;;;;;18.09;63.79;98429.84;2096735;28;20396;-46
2022/05/06 04:04:15;;;;;;;;;;;;;;;18.09;63.66;98434.38;2099246;28;19928;-49
2022/05/06 04:05:16;;;;;;;;;;;;;;;18.11;63.51;98431.47;2095047;28;20015;-51
2022/05/06 04:06:17;;;;;;;;;;;;;;;18.07;63.52;98425.72;2098861;28;19964;-49
2022/05/06 04:07:18;;;;;;;;;;;;;;;18.06;63.66;98430.25;2098185;28;24759;-49
2022/05/06 04:08:20;;;;;;;;;;;;;;;18.06;63.68;98426.75;2099908;28;20019;-49
2022/05/06 04:09:21;;;;;;;;;;;;;;;18.07;63.50;98431.06;2100207;28;20294;-49
2022/05/06 04:10:23;;;;;;;;;;;;;;;18.07;63.82;98434.59;2099975;28;20007;-47
2022/05/06 04:11:24;;;;;;;;;;;;;;;18.05;63.84;98428.63;2098576;28;19924;-51
2022/05/06 04:12:28;;;;;;;;;;;;;;;18.06;63.73;98430.25;2098616;28;19959;-49
2022/05/06 04:13:28;;;;;;;;;;;;;;;18.04;63.64;98426.94;2093630;28;19948;-47
2022/05/06 04:14:30;;;;;;;;;;;;;;;18.04;63.78;98435.00;2100172;28;20347;-48
2022/05/06 04:15:32;;;;;;;;;;;;;;;18.05;63.71;98436.66;2099952;28;20345;-46
2022/05/06 04:16:34;;;;;;;;;;;;;;;18.05;63.88;98438.50;2097126;28;19928;-47
2022/05/06 04:17:34;;;;;;;;;;;;;;;18.04;63.82;98445.72;2098942;28;20557;-47
2022/05/06 04:18:36;;;;;;;;;;;;;;;18.05;63.84;98444.72;2097063;28;19924;-46
2022/05/06 04:19:36;;;;;;;;;;;;;;;18.05;63.73;98450.09;2093881;28;19963;-47
2022/05/06 04:24:31;;;;;;;;;;;;;;;18.05;63.50;98454.59;2098300;28;20333;-47
2022/05/06 04:25:31;;;;;;;;;;;;;;;18.05;63.69;98455.44;2094244;28;19932;-50
2022/05/06 04:26:33;;;;;;;;;;;;;;;18.04;63.80;98459.16;2099463;28;20683;-47
2022/05/06 04:27:35;;;;;;;;;;;;;;;18.03;63.86;98462.88;2098665;28;19928;-48
2022/05/06 04:28:37;;;;;;;;;;;;;;;18.03;63.72;98457.50;2101690;28;19986;-48
2022/05/06 04:29:37;;;;;;;;;;;;;;;18.03;63.83;98462.06;2100660;28;19936;-47
2022/05/06 04:30:39;;;;;;;;;;;;;;;18.05;63.86;98459.97;2096109;28;19949;-48
2022/05/06 04:31:39;;;;;;;;;;;;;;;18.03;63.52;98472.78;2094233;28;19924;-46
2022/05/06 04:32:41;;;;;;;;;;;;;;;18.02;63.73;98469.25;2100404;28;19931;-46
2022/05/06 04:33:42;;;;;;;;;;;;;;;18.04;63.83;98475.25;2097918;28;20645;-48
2022/05/06 04:34:43;;;;;;;;;;;;;;;18.05;63.51;98481.44;2100169;28;19969;-47
2022/05/06 04:35:44;;;;;;;;;;;;;;;18.04;63.79;98485.16;2100288;28;20554;-48
2022/05/06 04:36:46;;;;;;;;;;;;;;;18.03;63.62;98481.66;2100026;28;19931;-48
2022/05/06 04:37:47;;;;;;;;;;;;;;;18.05;63.79;98486.81;2097415;28;19932;-46
2022/05/06 04:38:48;;;;;;;;;;;;;;;18.03;63.71;98478.97;2099516;28;20022;-47
2022/05/06 04:39:49;;;;;;;;;;;;;;;18.03;63.81;98481.66;2093510;28;20073;-47
2022/05/06 04:40:51;;;;;;;;;;;;;;;18.02;63.80;98479.16;2099136;28;19932;-47
2022/05/06 04:41:51;;;;;;;;;;;;;;;18.01;63.81;98474.84;2098623;28;19984;-50
2022/05/06 04:42:54;;;;;;;;;;;;;;;18.02;63.80;98471.94;2101492;28;19932;-48
2022/05/06 04:43:56;;;;;;;;;;;;;;;18.01;63.75;98466.78;2093211;28;20011;-47
2022/05/06 04:44:57;;;;;;;;;;;;;;;18.00;63.68;98460.59;2098876;28;20383;-47
2022/05/06 04:45:58;;;;;;;;;;;;;;;18.01;63.75;98459.56;2098040;28;20027;-48
2022/05/06 04:46:59;;;;;;;;;;;;;;;18.02;63.74;98455.84;2099899;28;20022;-46
2022/05/06 04:48:00;;;;;;;;;;;;;;;18.02;63.80;98450.47;2097461;28;19939;-48
2022/05/06 04:49:01;;;;;;;;;;;;;;;18.02;63.68;98455.00;2099916;28;19924;-48
2022/05/06 04:50:02;;;;;;;;;;;;;;;17.99;63.75;98455.41;2098739;28;19952;-48
2022/05/06 04:51:04;;;;;;;;;;;;;;;18.00;63.69;98457.91;2098152;28;19928;-47
2022/05/06 04:52:05;;;;;;;;;;;;;;;18.00;63.75;98468.66;2101364;28;20430;-49
2022/05/06 04:53:08;;;;;;;;;;;;;;;18.01;63.64;98459.56;2097074;28;19959;-47
2022/05/06 04:54:11;;;;;;;;;;;;;;;18.00;63.74;98460.59;2097968;28;20011;-47
2022/05/06 04:55:12;;;;;;;;;;;;;;;18.00;63.91;98467.84;2095440;28;19938;-47
2022/05/06 04:56:14;;;;;;;;;;;;;;;18.01;63.53;98464.09;2096490;28;20027;-48
2022/05/06 04:57:14;;;;;;;;;;;;;;;18.01;63.60;98472.16;2096933;28;19957;-48
2022/05/06 04:58:18;;;;;;;;;;;;;;;18.01;63.81;98475.66;2101625;28;19924;-49
2022/05/06 04:59:18;;;;;;;;;;;;;;;18.01;63.76;98481.03;2095924;28;19939;-46
2022/05/06 05:00:21;;;;;;;;;;;;;;;18.00;63.85;98467.84;2101119;28;20030;-48
2022/05/06 05:01:22;;;;;;;;;;;;;;;18.00;63.60;98476.69;2090965;28;19932;-48
2022/05/06 05:02:23;;;;;;;;;;;;;;;17.99;63.60;98474.19;2096060;28;20409;-50
2022/05/06 05:03:24;;;;;;;;;;;;;;;18.00;63.86;98474.00;2093005;28;20024;-47
2022/05/06 05:04:27;;;;;;;;;;;;;;;17.99;63.75;98472.34;2099884;28;20039;-48
2022/05/06 05:05:29;;;;;;;;;;;;;;;18.00;63.87;98473.19;2097222;28;19934;-47
2022/05/06 05:06:31;;;;;;;;;;;;;;;18.00;63.59;98468.66;2097050;28;20637;-46
2022/05/06 05:07:33;;;;;;;;;;;;;;;17.99;63.67;98466.16;2096107;28;19935;-46
2022/05/06 05:08:34;;;;;;;;;;;;;;;17.99;63.91;98466.97;2097243;28;19931;-50
2022/05/06 05:09:35;;;;;;;;;;;;;;;18.01;63.47;98469.47;2094808;28;20384;-47
2022/05/06 05:10:36;;;;;;;;;;;;;;;18.00;63.73;98473.19;2089653;28;19932;-50
2022/05/06 05:11:37;;;;;;;;;;;;;;;17.99;63.77;98469.66;2089694;28;19943;-48
2022/05/06 05:12:39;;;;;;;;;;;;;;;17.99;63.71;98472.34;2092235;28;19928;-46
2022/05/06 05:13:41;;;;;;;;;;;;;;;18.01;63.94;98472.97;2092860;28;20412;-49
2022/05/06 05:14:42;;;;;;;;;;;;;;;18.00;63.84;98478.56;2100317;28;20026;-49
2022/05/06 05:15:43;;;;;;;;;;;;;;;17.98;64.00;98481.44;2097881;28;20518;-50
2022/05/06 05:16:44;;;;;;;;;;;;;;;17.99;64.05;98474.19;2099741;28;19939;-48
2022/05/06 05:17:45;;;;;;;;;;;;;;;17.99;64.08;98477.72;2097751;28;19924;-47
2022/05/06 05:18:47;;;;;;;;;;;;;;;17.98;64.26;98481.44;2099833;28;19951;-47
2022/05/06 05:19:47;;;;;;;;;;;;;;;18.00;64.18;98483.94;2095773;28;19928;-47
2022/05/06 05:20:50;;;;;;;;;;;;;;;17.98;64.38;98481.44;2093589;28;20043;-49
2022/05/06 05:21:50;;;;;;;;;;;;;;;18.00;64.41;98482.06;2097560;28;19932;-47
2022/05/06 05:22:52;;;;;;;;;;;;;;;17.98;64.43;98481.44;2097029;28;19963;-49
2022/05/06 05:23:52;;;;;;;;;;;;;;;17.99;64.47;98485.75;2096389;28;19967;-50
2022/05/06 05:24:54;;;;;;;;;;;;;;;17.99;64.63;98493.81;2097039;28;19928;-47
2022/05/06 05:25:54;;;;;;;;;;;;;;;17.98;64.48;98497.53;2098654;28;20274;-47
2022/05/06 05:26:57;;;;;;;;;;;;;;;17.96;64.43;98499.59;2098016;28;19932;-51
2022/05/06 05:27:59;;;;;;;;;;;;;;;17.99;64.61;98503.72;2098546;28;20596;-47
2022/05/06 05:29:00;;;;;;;;;;;;;;;17.99;64.49;98509.09;2096949;28;20019;-46
2022/05/06 05:30:02;;;;;;;;;;;;;;;17.98;64.64;98507.44;2098994;28;19993;-46
2022/05/06 05:31:03;;;;;;;;;;;;;;;17.98;64.57;98508.28;2099685;28;20047;-48
2022/05/06 05:32:05;;;;;;;;;;;;;;;17.99;64.72;98506.41;2101411;28;19935;-47